createdAt,value
2022-09-25T00:01:34.312Z,100301.66
2022-09-25T00:04:03.603Z,100301.95
2022-09-25T00:06:33.291Z,100297.38
2022-09-25T00:09:02.402Z,100293.64
2022-09-25T00:11:33.033Z,100297.91
2022-09-25T00:14:02.653Z,100297.95
2022-09-25T00:16:32.606Z,100294.40
2022-09-25T00:19:34.109Z,100288.48
2022-09-25T00:22:02.867Z,100288.30
2022-09-25T00:24:32.008Z,100283.73
2022-09-25T00:27:01.317Z,100281.05
2022-09-25T00:29:30.418Z,100278.49
2022-09-25T00:31:59.195Z,100276.94
2022-09-25T00:34:27.952Z,100279.38
2022-09-25T00:36:56.831Z,100285.08
2022-09-25T00:39:25.707Z,100284.52
2022-09-25T00:41:54.612Z,100283.95
2022-09-25T00:44:56.110Z,100279.27
2022-09-25T00:47:33.355Z,100269.90
2022-09-25T00:50:04.619Z,100268.27
2022-09-25T00:52:33.156Z,100264.69
2022-09-25T00:55:05.271Z,100267.48
2022-09-25T00:57:36.915Z,100264.72
2022-09-25T01:00:09.811Z,100260.94
2022-09-25T01:02:42.423Z,100262.54
2022-09-25T01:05:14.370Z,100264.66
2022-09-25T01:07:47.635Z,100260.92
2022-09-25T01:10:18.405Z,100262.50
2022-09-25T01:12:48.923Z,100262.68
2022-09-25T01:15:20.361Z,100262.73
2022-09-25T01:18:00.866Z,100260.67
2022-09-25T01:20:50.457Z,100258.77
2022-09-25T01:23:30.826Z,100258.66
2022-09-25T01:26:19.132Z,100259.86
2022-09-25T01:29:01.519Z,100262.35
2022-09-25T01:31:37.583Z,100262.35
2022-09-25T01:34:13.464Z,100261.41
2022-09-25T01:36:47.581Z,100261.21
2022-09-25T01:39:21.457Z,100260.89
2022-09-25T01:41:54.999Z,100255.84
2022-09-25T01:44:28.637Z,100258.52
2022-09-25T01:47:06.042Z,100257.68
2022-09-25T01:49:39.358Z,100263.71
2022-09-25T01:52:13.418Z,100261.58
2022-09-25T01:54:45.871Z,100264.02
2022-09-25T01:57:20.354Z,100265.30
2022-09-25T01:59:53.881Z,100266.39
2022-09-25T02:02:28.080Z,100265.09
2022-09-25T02:05:03.043Z,100268.27
2022-09-25T02:07:35.833Z,100265.16
2022-09-25T02:10:09.179Z,100263.52
2022-09-25T02:12:42.636Z,100266.25
2022-09-25T02:15:15.906Z,100266.70
2022-09-25T02:18:09.583Z,100262.59
2022-09-25T02:20:41.500Z,100262.45
2022-09-25T02:23:17.986Z,100262.30
2022-09-25T02:25:52.902Z,100263.67
2022-09-25T02:28:22.279Z,100264.27
2022-09-25T02:30:54.140Z,100264.11
2022-09-25T02:33:23.986Z,100266.73
2022-09-25T02:35:52.549Z,100262.69
2022-09-25T02:38:21.129Z,100263.30
2022-09-25T02:40:55.948Z,100264.50
2022-09-25T02:43:37.586Z,100263.70
2022-09-25T02:46:11.503Z,100261.35
2022-09-25T02:48:49.321Z,100263.23
2022-09-25T02:51:26.599Z,100259.15
2022-09-25T02:54:05.740Z,100255.73
2022-09-25T02:56:40.849Z,100258.16
2022-09-25T02:59:15.016Z,100257.34
2022-09-25T03:01:46.188Z,100258.20
2022-09-25T03:04:17.622Z,100258.54
2022-09-25T03:06:47.234Z,100256.84
2022-09-25T03:09:19.414Z,100250.23
2022-09-25T03:11:47.761Z,100249.93
2022-09-25T03:14:15.962Z,100251.27
2022-09-25T03:16:48.324Z,100247.74
2022-09-25T03:19:19.002Z,100243.56
2022-09-25T03:21:47.913Z,100245.73
2022-09-25T03:24:16.875Z,100242.20
2022-09-25T03:26:45.168Z,100243.14
2022-09-25T03:29:14.154Z,100239.79
2022-09-25T03:31:42.492Z,100237.56
2022-09-25T03:34:13.081Z,100237.80
2022-09-25T03:36:42.107Z,100231.55
2022-09-25T03:39:10.349Z,100230.61
2022-09-25T03:41:38.531Z,100233.61
2022-09-25T03:44:07.065Z,100235.44
2022-09-25T03:46:35.974Z,100230.05
2022-09-25T03:49:04.997Z,100226.77
2022-09-25T03:51:34.461Z,100229.20
2022-09-25T03:54:03.746Z,100226.88
2022-09-25T03:56:32.216Z,100225.98
2022-09-25T03:59:00.790Z,100227.45
2022-09-25T04:01:29.597Z,100229.80
2022-09-25T04:04:00.538Z,100230.25
2022-09-25T04:06:28.994Z,100230.55
2022-09-25T04:08:57.240Z,100230.87
2022-09-25T04:11:25.457Z,100230.77
2022-09-25T04:13:54.548Z,100233.54
2022-09-25T04:16:22.766Z,100232.31
2022-09-25T04:18:51.151Z,100234.33
2022-09-25T04:21:19.369Z,100236.06
2022-09-25T04:24:02.312Z,100235.45
2022-09-25T04:26:30.626Z,100237.49
2022-09-25T04:29:00.698Z,100240.08
2022-09-25T04:31:29.675Z,100240.14
2022-09-25T04:33:57.869Z,100242.57
2022-09-25T04:36:26.140Z,100245.65
2022-09-25T04:38:54.397Z,100242.69
2022-09-25T04:41:22.549Z,100245.95
2022-09-25T04:43:50.892Z,100240.90
2022-09-25T04:46:22.512Z,100239.16
2022-09-25T04:48:51.348Z,100237.52
2022-09-25T04:51:19.832Z,100237.14
2022-09-25T04:53:48.151Z,100244.41
2022-09-25T04:56:17.147Z,100241.41
2022-09-25T04:58:46.822Z,100245.19
2022-09-25T05:01:16.492Z,100244.88
2022-09-25T05:03:49.388Z,100242.65
2022-09-25T05:06:17.724Z,100241.96
2022-09-25T05:08:48.985Z,100238.59
2022-09-25T05:11:17.263Z,100237.23
2022-09-25T05:13:48.737Z,100243.14
2022-09-25T05:16:17.093Z,100245.73
2022-09-25T05:18:45.712Z,100241.69
2022-09-25T05:21:13.930Z,100244.14
2022-09-25T05:23:42.089Z,100244.66
2022-09-25T05:26:10.339Z,100247.79
2022-09-25T05:28:38.671Z,100248.83
2022-09-25T05:31:07.458Z,100249.69
2022-09-25T05:33:36.035Z,100248.18
2022-09-25T05:36:06.757Z,100251.83
2022-09-25T05:38:37.089Z,100252.30
2022-09-25T05:41:07.671Z,100250.83
2022-09-25T05:43:39.884Z,100254.71
2022-09-25T05:46:08.523Z,100254.43
2022-09-25T05:48:37.590Z,100258.01
2022-09-25T05:51:06.373Z,100255.86
2022-09-25T05:53:35.137Z,100257.55
2022-09-25T05:56:05.250Z,100253.46
2022-09-25T05:58:34.833Z,100249.59
2022-09-25T06:01:05.636Z,100252.77
2022-09-25T06:03:34.674Z,100251.48
2022-09-25T06:06:03.459Z,100252.19
2022-09-25T06:08:34.795Z,100254.88
2022-09-25T06:11:04.320Z,100251.25
2022-09-25T06:13:36.103Z,100252.23
2022-09-25T06:16:12.914Z,100248.73
2022-09-25T06:18:41.173Z,100253.19
2022-09-25T06:21:09.844Z,100251.54
2022-09-25T06:23:38.064Z,100250.21
2022-09-25T06:26:07.090Z,100250.33
2022-09-25T06:28:37.708Z,100248.08
2022-09-25T06:31:06.755Z,100249.60
2022-09-25T06:33:37.896Z,100246.70
2022-09-25T06:36:06.740Z,100245.48
2022-09-25T06:38:35.354Z,100245.73
2022-09-25T06:41:03.754Z,100245.98
2022-09-25T06:43:35.211Z,100245.19
2022-09-25T06:46:03.954Z,100248.92
2022-09-25T06:48:32.786Z,100248.09
2022-09-25T06:51:01.663Z,100246.65
2022-09-25T06:53:30.242Z,100250.81
2022-09-25T06:55:59.243Z,100246.05
2022-09-25T06:58:29.599Z,100248.83
2022-09-25T07:00:58.280Z,100249.64
2022-09-25T07:03:45.938Z,100246.72
2022-09-25T07:06:16.614Z,100250.92
2022-09-25T07:08:47.423Z,100249.29
2022-09-25T07:11:18.447Z,100247.11
2022-09-25T07:13:47.583Z,100242.60
2022-09-25T07:16:17.862Z,100241.45
2022-09-25T07:18:47.106Z,100240.73
2022-09-25T07:21:17.582Z,100238.33
2022-09-25T07:23:48.249Z,100241.14
2022-09-25T07:26:21.069Z,100239.48
2022-09-25T07:28:54.672Z,100235.73
2022-09-25T07:31:24.915Z,100238.88
2022-09-25T07:33:53.484Z,100234.35
2022-09-25T07:36:22.141Z,100232.31
2022-09-25T07:38:51.307Z,100240.41
2022-09-25T07:41:21.809Z,100242.70
2022-09-25T07:44:02.009Z,100240.48
2022-09-25T07:46:42.689Z,100243.09
2022-09-25T07:49:11.027Z,100242.16
2022-09-25T07:51:39.397Z,100241.21
2022-09-25T07:54:08.610Z,100238.58
2022-09-25T07:56:37.711Z,100240.15
2022-09-25T07:59:06.272Z,100241.66
2022-09-25T08:01:38.226Z,100238.59
2022-09-25T08:04:09.471Z,100243.70
2022-09-25T08:06:37.932Z,100240.82
2022-09-25T08:09:10.431Z,100240.79
2022-09-25T08:11:39.238Z,100237.18
2022-09-25T08:14:07.585Z,100228.64
2022-09-25T08:16:36.163Z,100223.85
2022-09-25T08:19:04.809Z,100218.77
2022-09-25T08:21:35.084Z,100217.83
2022-09-25T08:24:03.774Z,100216.16
2022-09-25T08:26:32.521Z,100218.30
2022-09-25T08:29:01.187Z,100218.55
2022-09-25T08:31:29.780Z,100220.69
2022-09-25T08:34:09.975Z,100220.38
2022-09-25T08:36:50.109Z,100218.45
2022-09-25T08:39:18.603Z,100218.17
2022-09-25T08:41:50.276Z,100216.17
2022-09-25T08:44:25.884Z,100217.80
2022-09-25T08:47:19.258Z,100217.53
2022-09-25T08:49:57.758Z,100218.02
2022-09-25T08:52:26.348Z,100220.78
2022-09-25T08:54:54.573Z,100220.67
2022-09-25T08:57:34.217Z,100220.63
2022-09-25T09:00:08.388Z,100216.69
2022-09-25T09:02:42.536Z,100217.86
2022-09-25T09:05:20.241Z,100221.25
2022-09-25T09:07:54.265Z,100213.84
2022-09-25T09:10:30.727Z,100219.54
2022-09-25T09:13:17.275Z,100211.70
2022-09-25T09:15:49.879Z,100204.90
2022-09-25T09:18:23.789Z,100202.59
2022-09-25T09:20:54.553Z,100200.20
2022-09-25T09:23:27.244Z,100199.15
2022-09-25T09:26:01.582Z,100200.32
2022-09-25T09:29:05.091Z,100197.33
2022-09-25T09:31:46.812Z,100198.74
2022-09-25T09:34:53.023Z,100200.42
2022-09-25T09:37:30.909Z,100201.08
2022-09-25T09:40:15.666Z,100196.77
2022-09-25T09:42:52.974Z,100190.33
2022-09-25T09:45:27.482Z,100189.73
2022-09-25T09:48:06.460Z,100187.70
2022-09-25T09:50:44.505Z,100184.83
2022-09-25T09:53:23.971Z,100187.54
2022-09-25T09:55:57.267Z,100186.24
2022-09-25T09:58:30.693Z,100182.83
2022-09-25T10:01:06.973Z,100181.32
2022-09-25T10:03:46.787Z,100180.54
2022-09-25T10:06:20.481Z,100175.96
2022-09-25T10:08:50.743Z,100175.63
2022-09-25T10:11:20.537Z,100171.67
2022-09-25T10:13:48.786Z,100168.89
2022-09-25T10:16:21.601Z,100169.25
2022-09-25T10:18:54.381Z,100168.46
2022-09-25T10:21:23.582Z,100170.39
2022-09-25T10:23:53.425Z,100165.11
2022-09-25T10:26:28.697Z,100163.61
2022-09-25T10:28:58.327Z,100164.13
2022-09-25T10:31:30.461Z,100157.48
2022-09-25T10:34:16.953Z,100158.30
2022-09-25T10:36:47.437Z,100156.16
2022-09-25T10:39:43.669Z,100157.89
2022-09-25T10:42:32.319Z,100154.64
2022-09-25T10:45:14.847Z,100153.75
2022-09-25T10:48:03.501Z,100147.42
2022-09-25T10:50:31.768Z,100140.19
2022-09-25T10:53:01.368Z,100141.11
2022-09-25T10:55:32.650Z,100137.05
2022-09-25T10:58:08.996Z,100133.11
2022-09-25T11:00:52.473Z,100131.10
2022-09-25T11:03:24.433Z,100133.58
2022-09-25T11:05:55.691Z,100132.55
2022-09-25T11:08:29.431Z,100129.09
2022-09-25T11:11:00.001Z,100127.25
2022-09-25T11:13:36.016Z,100123.52
2022-09-25T11:16:09.567Z,100119.23
2022-09-25T11:18:41.797Z,100115.05
2022-09-25T11:21:20.954Z,100112.80
2022-09-25T11:24:05.914Z,100104.35
2022-09-25T11:26:38.086Z,100110.84
2022-09-25T11:29:15.040Z,100112.64
2022-09-25T11:31:48.597Z,100111.42
2022-09-25T11:34:27.265Z,100110.70
2022-09-25T11:37:03.905Z,100109.61
2022-09-25T11:40:01.160Z,100107.45
2022-09-25T11:42:35.745Z,100103.94
2022-09-25T11:45:13.248Z,100103.45
2022-09-25T11:47:52.963Z,100097.98
2022-09-25T11:50:27.189Z,100099.52
2022-09-25T11:53:04.341Z,100095.75
2022-09-25T11:55:47.268Z,100094.77
2022-09-25T11:58:34.853Z,100089.83
2022-09-25T12:01:16.067Z,100090.02
2022-09-25T12:03:59.937Z,100079.63
2022-09-25T12:06:57.483Z,100076.42
2022-09-25T12:09:45.376Z,100074.04
2022-09-25T12:12:20.951Z,100073.16
2022-09-25T12:14:59.462Z,100067.13
2022-09-25T12:17:40.186Z,100068.34
2022-09-25T12:20:17.481Z,100069.27
2022-09-25T12:22:59.512Z,100066.73
2022-09-25T12:25:44.430Z,100062.17
2022-09-25T12:28:20.830Z,100065.39
2022-09-25T12:31:05.393Z,100066.71
2022-09-25T12:33:44.310Z,100058.33
2022-09-25T12:36:17.510Z,100057.38
2022-09-25T12:38:54.611Z,100052.54
2022-09-25T12:41:32.678Z,100049.27
2022-09-25T12:44:10.294Z,100046.40
2022-09-25T12:46:45.206Z,100049.47
2022-09-25T12:49:20.041Z,100051.30
2022-09-25T12:51:50.672Z,100045.48
2022-09-25T12:54:25.935Z,100042.40
2022-09-25T12:56:58.371Z,100042.35
2022-09-25T12:59:34.641Z,100040.27
2022-09-25T13:02:11.306Z,100039.27
2022-09-25T13:05:02.992Z,100042.91
2022-09-25T13:07:38.352Z,100039.39
2022-09-25T13:10:24.479Z,100043.71
2022-09-25T13:12:55.811Z,100040.76
2022-09-25T13:15:28.070Z,100035.21
2022-09-25T13:17:59.599Z,100034.35
2022-09-25T13:21:20.739Z,100032.86
2022-09-25T13:23:52.531Z,100030.44
2022-09-25T13:26:24.407Z,100034.04
2022-09-25T13:28:56.595Z,100031.96
2022-09-25T13:31:27.274Z,100031.38
2022-09-25T13:34:06.857Z,100025.20
2022-09-25T13:36:46.760Z,100028.58
2022-09-25T13:39:45.709Z,100019.52
2022-09-25T13:42:22.265Z,100019.02
2022-09-25T13:45:05.700Z,100016.94
2022-09-25T13:48:07.849Z,100023.63
2022-09-25T13:50:44.904Z,100016.34
2022-09-25T13:53:37.322Z,100009.48
2022-09-25T13:56:21.575Z,100005.39
2022-09-25T13:59:21.861Z,100005.93
2022-09-25T14:01:54.150Z,100001.92
2022-09-25T14:04:32.489Z,100000.15
2022-09-25T14:07:18.252Z,100002.60
2022-09-25T14:09:50.020Z,100002.41
2022-09-25T14:12:32.627Z,99999.30
2022-09-25T14:15:06.859Z,99993.73
2022-09-25T14:17:36.684Z,99994.71
2022-09-25T14:20:25.411Z,99994.96
2022-09-25T14:22:56.058Z,99999.42
2022-09-25T14:25:32.634Z,99996.64
2022-09-25T14:28:02.677Z,99997.46
2022-09-25T14:30:32.237Z,99993.43
2022-09-25T14:33:23.202Z,99997.31
2022-09-25T14:36:00.930Z,99990.45
2022-09-25T14:38:53.424Z,99986.30
2022-09-25T14:41:43.477Z,99983.66
2022-09-25T14:44:39.642Z,99976.79
2022-09-25T14:47:13.660Z,99975.24
2022-09-25T14:49:45.277Z,99975.86
2022-09-25T14:52:16.745Z,99970.10
2022-09-25T14:54:47.930Z,99966.90
2022-09-25T14:57:25.248Z,99961.44
2022-09-25T14:59:57.153Z,99963.39
2022-09-25T15:02:31.038Z,99961.27
2022-09-25T15:05:15.469Z,99961.13
2022-09-25T15:07:45.619Z,99956.84
2022-09-25T15:10:30.526Z,99953.81
2022-09-25T15:13:08.632Z,99951.62
2022-09-25T15:15:38.615Z,99951.60
2022-09-25T15:18:12.584Z,99944.97
2022-09-25T15:20:46.359Z,99940.63
2022-09-25T15:23:19.639Z,99946.71
2022-09-25T15:25:51.181Z,99943.55
2022-09-25T15:28:23.840Z,99942.47
2022-09-25T15:30:55.451Z,99936.42
2022-09-25T15:33:27.892Z,99932.95
2022-09-25T15:35:57.727Z,99931.98
2022-09-25T15:38:33.291Z,99929.65
2022-09-25T15:41:02.426Z,99931.96
2022-09-25T15:43:31.025Z,99931.56
2022-09-25T15:46:29.847Z,99927.55
2022-09-25T15:48:59.737Z,99930.11
2022-09-25T15:51:32.924Z,99928.81
2022-09-25T15:54:03.602Z,99928.31
2022-09-25T15:56:38.331Z,99928.75
2022-09-25T15:59:17.350Z,99929.50
2022-09-25T16:02:04.346Z,99926.04
2022-09-25T16:04:49.014Z,99926.69
2022-09-25T16:07:26.631Z,99926.59
2022-09-25T16:09:57.399Z,99926.19
2022-09-25T16:12:34.210Z,99918.07
2022-09-25T16:15:40.846Z,99919.27
2022-09-25T16:18:28.807Z,99917.66
2022-09-25T16:21:09.386Z,99911.40
2022-09-25T16:23:39.395Z,99904.73
2022-09-25T16:26:16.486Z,99902.58
2022-09-25T16:28:52.270Z,99901.55
2022-09-25T16:31:24.585Z,99906.38
2022-09-25T16:33:55.950Z,99907.49
2022-09-25T16:36:27.055Z,99903.52
2022-09-25T16:39:14.573Z,99904.00
2022-09-25T16:41:47.759Z,99901.63
2022-09-25T16:44:17.580Z,99905.04
2022-09-25T16:47:03.527Z,99908.20
2022-09-25T16:49:33.253Z,99908.50
2022-09-25T16:52:05.892Z,99907.54
2022-09-25T16:54:38.058Z,99909.49
2022-09-25T16:57:06.537Z,99907.83
2022-09-25T16:59:35.393Z,99910.79
2022-09-25T17:02:18.103Z,99907.52
2022-09-25T17:04:46.627Z,99902.19
2022-09-25T17:07:15.439Z,99908.23
2022-09-25T17:09:44.071Z,99904.88
2022-09-25T17:12:17.873Z,99898.61
2022-09-25T17:14:47.145Z,99896.95
2022-09-25T17:17:17.953Z,99896.60
2022-09-25T17:19:46.698Z,99889.42
2022-09-25T17:22:15.529Z,99886.73
2022-09-25T17:24:43.808Z,99885.37
2022-09-25T17:27:16.225Z,99884.44
2022-09-25T17:29:46.118Z,99879.69
2022-09-25T17:32:16.926Z,99881.19
2022-09-25T17:34:46.561Z,99881.92
2022-09-25T17:37:15.068Z,99881.55
2022-09-25T17:39:43.972Z,99877.20
2022-09-25T17:42:12.446Z,99875.06
2022-09-25T17:44:43.126Z,99877.17
2022-09-25T17:47:12.548Z,99870.89
2022-09-25T17:49:41.301Z,99879.47
2022-09-25T17:52:21.575Z,99881.31
2022-09-25T17:54:50.469Z,99883.24
2022-09-25T17:57:19.568Z,99888.11
2022-09-25T17:59:48.297Z,99883.33
2022-09-25T18:02:20.015Z,99892.63
2022-09-25T18:04:48.821Z,99888.13
2022-09-25T18:07:18.201Z,99889.86
2022-09-25T18:09:46.930Z,99883.40
2022-09-25T18:12:15.740Z,99887.35
2022-09-25T18:14:45.440Z,99882.38
2022-09-25T18:17:15.633Z,99884.59
2022-09-25T18:20:03.017Z,99881.48
2022-09-25T18:22:31.883Z,99883.77
2022-09-25T18:25:00.346Z,99879.94
2022-09-25T18:27:33.587Z,99886.98
2022-09-25T18:30:02.445Z,99884.80
2022-09-25T18:32:32.476Z,99887.39
2022-09-25T18:35:02.495Z,99887.42
2022-09-25T18:37:31.056Z,99883.80
2022-09-25T18:39:59.537Z,99889.23
2022-09-25T18:42:28.073Z,99881.55
2022-09-25T18:44:56.692Z,99880.86
2022-09-25T18:47:26.418Z,99877.58
2022-09-25T18:49:54.930Z,99876.05
2022-09-25T18:52:23.713Z,99874.83
2022-09-25T18:54:52.441Z,99878.75
2022-09-25T18:57:20.879Z,99876.61
2022-09-25T18:59:49.557Z,99877.04
2022-09-25T19:02:22.449Z,99879.77
2022-09-25T19:04:54.126Z,99882.08
2022-09-25T19:07:23.185Z,99880.71
2022-09-25T19:09:52.846Z,99878.21
2022-09-25T19:12:22.367Z,99876.76
2022-09-25T19:14:51.385Z,99875.45
2022-09-25T19:17:20.168Z,99875.77
2022-09-25T19:19:49.521Z,99876.52
2022-09-25T19:22:20.778Z,99873.20
2022-09-25T19:24:50.825Z,99874.80
2022-09-25T19:27:19.578Z,99870.42
2022-09-25T19:29:48.330Z,99871.50
2022-09-25T19:32:18.541Z,99870.40
2022-09-25T19:34:47.903Z,99867.06
2022-09-25T19:37:17.051Z,99868.84
2022-09-25T19:40:06.887Z,99865.73
2022-09-25T19:42:37.159Z,99870.30
2022-09-25T19:45:07.989Z,99866.44
2022-09-25T19:47:37.126Z,99865.90
2022-09-25T19:50:08.501Z,99862.74
2022-09-25T19:52:38.036Z,99865.98
2022-09-25T19:55:08.441Z,99864.66
2022-09-25T19:57:37.285Z,99862.20
2022-09-25T20:00:09.158Z,99860.48
2022-09-25T20:02:43.595Z,99862.60
2022-09-25T20:05:12.396Z,99861.23
2022-09-25T20:07:40.923Z,99863.97
2022-09-25T20:10:09.471Z,99863.45
2022-09-25T20:12:37.839Z,99858.36
2022-09-25T20:15:08.411Z,99860.50
2022-09-25T20:17:37.209Z,99863.49
2022-09-25T20:20:06.845Z,99863.22
2022-09-25T20:22:38.460Z,99865.87
2022-09-25T20:25:08.982Z,99861.08
2022-09-25T20:27:37.895Z,99864.92
2022-09-25T20:30:08.559Z,99858.83
2022-09-25T20:32:38.055Z,99853.81
2022-09-25T20:35:08.232Z,99848.23
2022-09-25T20:37:36.821Z,99848.23
2022-09-25T20:40:06.647Z,99850.63
2022-09-25T20:42:35.084Z,99848.27
2022-09-25T20:45:04.320Z,99848.11
2022-09-25T20:47:33.255Z,99847.61
2022-09-25T20:50:02.022Z,99845.02
2022-09-25T20:52:32.277Z,99841.45
2022-09-25T20:55:00.685Z,99839.22
2022-09-25T20:57:32.783Z,99840.23
2022-09-25T21:00:01.839Z,99832.90
2022-09-25T21:02:31.980Z,99832.51
2022-09-25T21:05:00.368Z,99830.29
2022-09-25T21:07:28.725Z,99828.34
2022-09-25T21:09:57.044Z,99829.45
2022-09-25T21:12:25.563Z,99823.00
2022-09-25T21:14:56.689Z,99823.69
2022-09-25T21:17:25.448Z,99819.70
2022-09-25T21:19:54.074Z,99818.05
2022-09-25T21:22:22.697Z,99811.81
2022-09-25T21:24:51.313Z,99811.23
2022-09-25T21:27:19.710Z,99806.92
2022-09-25T21:29:48.206Z,99808.23
2022-09-25T21:32:16.972Z,99812.81
2022-09-25T21:34:45.590Z,99806.10
2022-09-25T21:37:14.223Z,99799.95
2022-09-25T21:39:43.171Z,99799.33
2022-09-25T21:42:11.746Z,99795.81
2022-09-25T21:44:40.307Z,99793.94
2022-09-25T21:47:09.049Z,99786.20
2022-09-25T21:49:37.924Z,99786.35
2022-09-25T21:52:06.992Z,99779.76
2022-09-25T21:54:35.620Z,99777.22
2022-09-25T21:57:04.397Z,99772.14
2022-09-25T21:59:32.879Z,99765.17
2022-09-25T22:02:01.476Z,99764.27
2022-09-25T22:04:30.358Z,99761.88
2022-09-25T22:06:58.994Z,99756.75
2022-09-25T22:09:27.635Z,99754.40
2022-09-25T22:11:56.847Z,99751.73
2022-09-25T22:14:25.360Z,99752.11
2022-09-25T22:16:54.935Z,99749.05
2022-09-25T22:19:25.669Z,99749.32
2022-09-25T22:21:56.333Z,99747.80
2022-09-25T22:24:26.251Z,99745.00
2022-09-25T22:26:56.497Z,99745.03
2022-09-25T22:29:26.432Z,99744.79
2022-09-25T22:31:55.376Z,99750.73
2022-09-25T22:34:27.439Z,99748.41
2022-09-25T22:36:59.986Z,99742.45
2022-09-25T22:39:30.656Z,99740.41
2022-09-25T22:41:59.531Z,99738.61
2022-09-25T22:44:28.502Z,99739.33
2022-09-25T22:47:01.400Z,99735.88
2022-09-25T22:49:32.767Z,99726.95
2022-09-25T22:52:01.826Z,99720.63
2022-09-25T22:54:30.603Z,99717.65
2022-09-25T22:56:59.530Z,99720.65
2022-09-25T22:59:28.491Z,99717.90
2022-09-25T23:01:57.252Z,99712.98
2022-09-25T23:04:26.105Z,99712.42
2022-09-25T23:06:54.732Z,99704.96
2022-09-25T23:09:25.510Z,99708.13
2022-09-25T23:11:55.303Z,99707.63
2022-09-25T23:14:26.187Z,99706.48
2022-09-25T23:16:54.937Z,99704.33
2022-09-25T23:19:24.727Z,99705.00
2022-09-25T23:21:54.345Z,99709.03
2022-09-25T23:24:23.791Z,99709.02
2022-09-25T23:26:52.997Z,99707.34
2022-09-25T23:29:22.282Z,99698.09
2022-09-25T23:31:51.870Z,99706.52
2022-09-25T23:34:21.045Z,99700.21
2022-09-25T23:36:49.711Z,99694.54
2022-09-25T23:39:19.933Z,99697.41
2022-09-25T23:41:48.603Z,99695.73
2022-09-25T23:44:17.172Z,99691.41
2022-09-25T23:46:45.686Z,99685.60
2022-09-25T23:49:15.298Z,99687.19
2022-09-25T23:51:45.554Z,99687.30
2022-09-25T23:54:14.489Z,99685.56
2022-09-25T23:56:42.923Z,99680.44
2022-09-25T23:59:13.034Z,99677.23
